sensor_id;sensor_type;location;lat;lon;timestamp;pressure;altitude;pressure_sealevel;temperature;humidity
57442;BME280;43284;47.042;15.498;2023-02-08T00:00:24;99321.66;;;-7.27;82.47
57442;BME280;43284;47.042;15.498;2023-02-08T00:02:50;99314.59;;;-7.32;82.45
57442;BME280;43284;47.042;15.498;2023-02-08T00:05:17;99316.94;;;-7.35;82.28
57442;BME280;43284;47.042;15.498;2023-02-08T00:07:43;99316.78;;;-7.38;82.06
57442;BME280;43284;47.042;15.498;2023-02-08T00:10:09;99317.38;;;-7.42;82.20
57442;BME280;43284;47.042;15.498;2023-02-08T00:12:35;99314.84;;;-7.42;82.67
57442;BME280;43284;47.042;15.498;2023-02-08T00:15:02;99316.41;;;-7.44;82.31
57442;BME280;43284;47.042;15.498;2023-02-08T00:17:28;99315.28;;;-7.50;82.66
57442;BME280;43284;47.042;15.498;2023-02-08T00:19:54;99317.19;;;-7.46;83.37
57442;BME280;43284;47.042;15.498;2023-02-08T00:22:19;99321.41;;;-7.46;82.62
57442;BME280;43284;47.042;15.498;2023-02-08T00:24:45;99327.19;;;-7.49;82.74
57442;BME280;43284;47.042;15.498;2023-02-08T00:27:11;99332.97;;;-7.51;82.51
57442;BME280;43284;47.042;15.498;2023-02-08T00:29:36;99329.47;;;-7.53;82.65
57442;BME280;43284;47.042;15.498;2023-02-08T00:32:02;99324.22;;;-7.56;82.46
57442;BME280;43284;47.042;15.498;2023-02-08T00:34:28;99323.25;;;-7.58;82.88
57442;BME280;43284;47.042;15.498;2023-02-08T00:36:54;99325.78;;;-7.58;83.36
57442;BME280;43284;47.042;15.498;2023-02-08T00:39:20;99319.91;;;-7.57;83.03
57442;BME280;43284;47.042;15.498;2023-02-08T00:41:46;99321.22;;;-7.64;82.67
57442;BME280;43284;47.042;15.498;2023-02-08T00:44:11;99328.75;;;-7.66;82.44
57442;BME280;43284;47.042;15.498;2023-02-08T00:46:37;99324.28;;;-7.70;82.28
57442;BME280;43284;47.042;15.498;2023-02-08T00:49:03;99335.38;;;-7.68;83.43
57442;BME280;43284;47.042;15.498;2023-02-08T00:51:28;99335.31;;;-7.69;83.15
57442;BME280;43284;47.042;15.498;2023-02-08T00:53:54;99333.38;;;-7.73;82.92
57442;BME280;43284;47.042;15.498;2023-02-08T00:56:20;99333.28;;;-7.75;82.77
57442;BME280;43284;47.042;15.498;2023-02-08T00:58:45;99326.28;;;-7.79;82.48
57442;BME280;43284;47.042;15.498;2023-02-08T01:01:11;99331.69;;;-7.88;82.23
57442;BME280;43284;47.042;15.498;2023-02-08T01:03:38;99336.00;;;-7.87;82.53
57442;BME280;43284;47.042;15.498;2023-02-08T01:06:07;99334.56;;;-7.96;82.12
57442;BME280;43284;47.042;15.498;2023-02-08T01:08:33;99327.47;;;-8.02;83.50
57442;BME280;43284;47.042;15.498;2023-02-08T01:11:16;99332.63;;;-8.00;83.64
57442;BME280;43284;47.042;15.498;2023-02-08T01:13:43;99331.84;;;-7.99;83.52
57442;BME280;43284;47.042;15.498;2023-02-08T01:16:13;99327.53;;;-8.00;83.64
57442;BME280;43284;47.042;15.498;2023-02-08T01:18:40;99327.47;;;-8.02;84.10
57442;BME280;43284;47.042;15.498;2023-02-08T01:21:09;99321.16;;;-7.94;84.96
57442;BME280;43284;47.042;15.498;2023-02-08T01:23:36;99329.69;;;-7.93;84.52
57442;BME280;43284;47.042;15.498;2023-02-08T01:26:03;99319.81;;;-7.89;84.48
57442;BME280;43284;47.042;15.498;2023-02-08T01:28:29;99327.31;;;-7.90;84.53
57442;BME280;43284;47.042;15.498;2023-02-08T01:30:54;99325.31;;;-7.96;83.94
57442;BME280;43284;47.042;15.498;2023-02-08T01:33:20;99326.06;;;-7.97;83.61
57442;BME280;43284;47.042;15.498;2023-02-08T01:35:51;99323.44;;;-7.98;83.80
57442;BME280;43284;47.042;15.498;2023-02-08T01:38:18;99316.53;;;-8.01;84.20
57442;BME280;43284;47.042;15.498;2023-02-08T01:40:44;99315.50;;;-8.04;83.78
57442;BME280;43284;47.042;15.498;2023-02-08T01:43:25;99305.13;;;-8.08;83.65
57442;BME280;43284;47.042;15.498;2023-02-08T01:45:51;99314.59;;;-8.05;84.51
57442;BME280;43284;47.042;15.498;2023-02-08T01:48:20;99307.69;;;-8.08;84.18
57442;BME280;43284;47.042;15.498;2023-02-08T01:50:55;99299.97;;;-8.09;83.91
57442;BME280;43284;47.042;15.498;2023-02-08T01:53:24;99304.16;;;-8.10;83.71
57442;BME280;43284;47.042;15.498;2023-02-08T01:55:54;99308.38;;;-8.10;83.76
57442;BME280;43284;47.042;15.498;2023-02-08T01:58:24;99306.53;;;-8.13;83.84
57442;BME280;43284;47.042;15.498;2023-02-08T02:00:51;99303.78;;;-8.16;83.52
57442;BME280;43284;47.042;15.498;2023-02-08T02:03:19;99305.72;;;-8.12;84.31
57442;BME280;43284;47.042;15.498;2023-02-08T02:05:51;99311.78;;;-8.10;85.13
57442;BME280;43284;47.042;15.498;2023-02-08T02:08:18;99314.91;;;-8.14;84.48
57442;BME280;43284;47.042;15.498;2023-02-08T02:10:47;99316.97;;;-8.08;85.42
57442;BME280;43284;47.042;15.498;2023-02-08T02:13:19;99312.75;;;-8.08;85.54
57442;BME280;43284;47.042;15.498;2023-02-08T02:15:46;99313.03;;;-8.03;85.79
57442;BME280;43284;47.042;15.498;2023-02-08T02:18:19;99315.19;;;-8.09;84.92
57442;BME280;43284;47.042;15.498;2023-02-08T02:24:07;99313.44;;;-8.10;84.99
57442;BME280;43284;47.042;15.498;2023-02-08T02:27:05;99320.59;;;-8.18;84.11
57442;BME280;43284;47.042;15.498;2023-02-08T02:29:55;99307.63;;;-8.22;84.37
57442;BME280;43284;47.042;15.498;2023-02-08T02:42:16;99332.44;;;-8.32;83.87
57442;BME280;43284;47.042;15.498;2023-02-08T02:44:50;99337.41;;;-8.33;84.07
57442;BME280;43284;47.042;15.498;2023-02-08T02:47:44;99337.13;;;-8.38;83.78
57442;BME280;43284;47.042;15.498;2023-02-08T02:50:23;99337.00;;;-8.41;84.08
57442;BME280;43284;47.042;15.498;2023-02-08T02:53:02;99338.72;;;-8.40;84.19
57442;BME280;43284;47.042;15.498;2023-02-08T02:55:33;99341.44;;;-8.37;84.56
57442;BME280;43284;47.042;15.498;2023-02-08T02:58:02;99336.28;;;-8.38;84.61
57442;BME280;43284;47.042;15.498;2023-02-08T03:00:30;99335.47;;;-8.52;83.10
57442;BME280;43284;47.042;15.498;2023-02-08T03:02:57;99335.97;;;-8.58;83.67
57442;BME280;43284;47.042;15.498;2023-02-08T03:05:23;99336.06;;;-8.56;84.25
57442;BME280;43284;47.042;15.498;2023-02-08T03:08:15;99340.84;;;-8.61;83.79
57442;BME280;43284;47.042;15.498;2023-02-08T03:10:59;99341.81;;;-8.59;84.51
57442;BME280;43284;47.042;15.498;2023-02-08T03:13:32;99350.88;;;-8.49;85.79
57442;BME280;43284;47.042;15.498;2023-02-08T03:16:14;99356.22;;;-8.44;85.92
57442;BME280;43284;47.042;15.498;2023-02-08T03:18:55;99353.69;;;-8.44;85.90
57442;BME280;43284;47.042;15.498;2023-02-08T03:21:39;99358.47;;;-8.49;85.91
57442;BME280;43284;47.042;15.498;2023-02-08T03:27:05;99361.28;;;-8.44;86.37
57442;BME280;43284;47.042;15.498;2023-02-08T03:30:02;99366.28;;;-8.46;85.60
57442;BME280;43284;47.042;15.498;2023-02-08T03:32:45;99365.78;;;-8.54;84.65
57442;BME280;43284;47.042;15.498;2023-02-08T03:35:32;99367.34;;;-8.56;84.45
57442;BME280;43284;47.042;15.498;2023-02-08T03:38:16;99369.44;;;-8.63;84.30
57442;BME280;43284;47.042;15.498;2023-02-08T03:40:48;99370.19;;;-8.64;84.21
57442;BME280;43284;47.042;15.498;2023-02-08T03:43:39;99371.28;;;-8.61;85.60
57442;BME280;43284;47.042;15.498;2023-02-08T03:46:15;99375.16;;;-8.66;85.02
57442;BME280;43284;47.042;15.498;2023-02-08T03:48:48;99365.81;;;-8.67;84.94
57442;BME280;43284;47.042;15.498;2023-02-08T03:51:17;99375.78;;;-8.70;84.57
57442;BME280;43284;47.042;15.498;2023-02-08T03:53:45;99366.69;;;-8.66;85.29
57442;BME280;43284;47.042;15.498;2023-02-08T03:59:38;99365.31;;;-8.75;84.48
57442;BME280;43284;47.042;15.498;2023-02-08T04:02:08;99352.66;;;-8.75;85.10
57442;BME280;43284;47.042;15.498;2023-02-08T04:04:41;99357.06;;;-8.85;84.14
57442;BME280;43284;47.042;15.498;2023-02-08T04:07:08;99372.63;;;-8.79;83.82
57442;BME280;43284;47.042;15.498;2023-02-08T04:09:34;99373.16;;;-8.85;84.11
57442;BME280;43284;47.042;15.498;2023-02-08T04:12:00;99368.84;;;-8.86;84.71
57442;BME280;43284;47.042;15.498;2023-02-08T04:14:25;99366.31;;;-8.86;84.97
57442;BME280;43284;47.042;15.498;2023-02-08T04:16:51;99370.50;;;-8.86;84.74
57442;BME280;43284;47.042;15.498;2023-02-08T04:19:17;99369.63;;;-8.87;84.97
57442;BME280;43284;47.042;15.498;2023-02-08T04:21:43;99372.75;;;-8.91;84.93
57442;BME280;43284;47.042;15.498;2023-02-08T04:24:08;99380.34;;;-8.91;85.18
57442;BME280;43284;47.042;15.498;2023-02-08T04:26:34;99385.41;;;-8.91;85.14
57442;BME280;43284;47.042;15.498;2023-02-08T04:29:00;99379.56;;;-8.90;85.26
57442;BME280;43284;47.042;15.498;2023-02-08T04:31:26;99388.25;;;-8.86;85.77
57442;BME280;43284;47.042;15.498;2023-02-08T04:33:51;99382.31;;;-8.87;85.64
57442;BME280;43284;47.042;15.498;2023-02-08T04:36:17;99378.22;;;-8.85;85.60
57442;BME280;43284;47.042;15.498;2023-02-08T04:38:43;99380.34;;;-8.91;86.09
57442;BME280;43284;47.042;15.498;2023-02-08T04:41:09;99368.16;;;-8.83;87.25
57442;BME280;43284;47.042;15.498;2023-02-08T04:43:35;99373.25;;;-8.70;87.35
57442;BME280;43284;47.042;15.498;2023-02-08T04:46:01;99362.03;;;-8.74;87.01
57442;BME280;43284;47.042;15.498;2023-02-08T04:48:27;99368.81;;;-8.73;87.49
57442;BME280;43284;47.042;15.498;2023-02-08T04:50:54;99364.94;;;-8.67;87.74
57442;BME280;43284;47.042;15.498;2023-02-08T04:53:21;99367.94;;;-8.60;88.83
57442;BME280;43284;47.042;15.498;2023-02-08T04:55:47;99360.41;;;-8.45;89.62
57442;BME280;43284;47.042;15.498;2023-02-08T04:58:13;99362.44;;;-8.39;89.36
57442;BME280;43284;47.042;15.498;2023-02-08T05:00:38;99369.09;;;-8.26;89.87
57442;BME280;43284;47.042;15.498;2023-02-08T05:03:04;99371.75;;;-8.25;88.82
57442;BME280;43284;47.042;15.498;2023-02-08T05:05:30;99374.16;;;-8.13;89.33
57442;BME280;43284;47.042;15.498;2023-02-08T05:07:57;99373.75;;;-8.06;89.06
57442;BME280;43284;47.042;15.498;2023-02-08T05:10:23;99372.44;;;-7.99;88.90
57442;BME280;43284;47.042;15.498;2023-02-08T05:12:48;99363.22;;;-7.84;89.27
57442;BME280;43284;47.042;15.498;2023-02-08T05:15:14;99366.81;;;-7.80;88.73
57442;BME280;43284;47.042;15.498;2023-02-08T05:17:40;99373.22;;;-7.72;88.86
57442;BME280;43284;47.042;15.498;2023-02-08T05:20:06;99384.53;;;-7.67;88.17
57442;BME280;43284;47.042;15.498;2023-02-08T05:22:32;99386.16;;;-7.68;87.40
57442;BME280;43284;47.042;15.498;2023-02-08T05:24:58;99379.03;;;-7.60;87.77
57442;BME280;43284;47.042;15.498;2023-02-08T05:27:23;99374.38;;;-7.52;87.68
57442;BME280;43284;47.042;15.498;2023-02-08T05:29:49;99382.44;;;-7.44;87.67
57442;BME280;43284;47.042;15.498;2023-02-08T05:32:15;99388.06;;;-7.35;87.64
57442;BME280;43284;47.042;15.498;2023-02-08T05:34:40;99387.63;;;-7.28;87.72
57442;BME280;43284;47.042;15.498;2023-02-08T05:37:06;99382.84;;;-7.23;87.20
57442;BME280;43284;47.042;15.498;2023-02-08T05:39:32;99386.50;;;-7.18;86.67
57442;BME280;43284;47.042;15.498;2023-02-08T05:41:57;99379.94;;;-7.15;86.41
57442;BME280;43284;47.042;15.498;2023-02-08T05:44:23;99390.78;;;-7.17;85.46
57442;BME280;43284;47.042;15.498;2023-02-08T05:46:49;99386.16;;;-7.10;86.03
57442;BME280;43284;47.042;15.498;2023-02-08T05:49:15;99382.38;;;-7.01;86.06
57442;BME280;43284;47.042;15.498;2023-02-08T05:51:40;99384.03;;;-7.02;85.50
57442;BME280;43284;47.042;15.498;2023-02-08T05:54:06;99392.56;;;-7.01;85.07
57442;BME280;43284;47.042;15.498;2023-02-08T05:56:32;99395.34;;;-6.97;85.35
57442;BME280;43284;47.042;15.498;2023-02-08T05:59:02;99399.22;;;-6.89;85.94
57442;BME280;43284;47.042;15.498;2023-02-08T06:01:28;99398.75;;;-6.81;86.07
57442;BME280;43284;47.042;15.498;2023-02-08T06:03:54;99399.16;;;-6.74;86.32
57442;BME280;43284;47.042;15.498;2023-02-08T06:06:20;99403.53;;;-6.71;86.07
57442;BME280;43284;47.042;15.498;2023-02-08T06:08:46;99402.16;;;-6.66;85.84
57442;BME280;43284;47.042;15.498;2023-02-08T06:11:11;99414.31;;;-6.60;86.20
57442;BME280;43284;47.042;15.498;2023-02-08T06:13:37;99423.81;;;-6.58;85.62
57442;BME280;43284;47.042;15.498;2023-02-08T06:16:06;99419.59;;;-6.57;84.63
57442;BME280;43284;47.042;15.498;2023-02-08T06:18:32;99420.47;;;-6.57;84.56
57442;BME280;43284;47.042;15.498;2023-02-08T06:20:58;99431.50;;;-6.56;84.37
57442;BME280;43284;47.042;15.498;2023-02-08T06:23:23;99441.78;;;-6.55;84.13
57442;BME280;43284;47.042;15.498;2023-02-08T06:25:49;99444.31;;;-6.55;83.88
57442;BME280;43284;47.042;15.498;2023-02-08T06:28:15;99446.84;;;-6.55;84.04
57442;BME280;43284;47.042;15.498;2023-02-08T06:30:41;99449.31;;;-6.56;83.78
57442;BME280;43284;47.042;15.498;2023-02-08T06:33:07;99457.19;;;-6.52;83.82
57442;BME280;43284;47.042;15.498;2023-02-08T06:35:33;99458.97;;;-6.51;84.49
57442;BME280;43284;47.042;15.498;2023-02-08T06:37:59;99465.06;;;-6.47;84.76
57442;BME280;43284;47.042;15.498;2023-02-08T06:40:25;99469.38;;;-6.46;84.81
57442;BME280;43284;47.042;15.498;2023-02-08T06:42:50;99463.69;;;-6.42;84.80
57442;BME280;43284;47.042;15.498;2023-02-08T06:45:16;99464.19;;;-6.33;85.33
57442;BME280;43284;47.042;15.498;2023-02-08T06:47:42;99474.28;;;-6.34;84.30
57442;BME280;43284;47.042;15.498;2023-02-08T06:50:09;99475.44;;;-6.29;84.72
57442;BME280;43284;47.042;15.498;2023-02-08T06:52:36;99485.84;;;-6.25;83.70
57442;BME280;43284;47.042;15.498;2023-02-08T06:55:02;99481.53;;;-6.26;83.70
57442;BME280;43284;47.042;15.498;2023-02-08T06:57:28;99480.75;;;-6.25;83.88
57442;BME280;43284;47.042;15.498;2023-02-08T06:59:54;99478.38;;;-6.22;83.77
57442;BME280;43284;47.042;15.498;2023-02-08T07:02:20;99475.38;;;-6.14;83.39
57442;BME280;43284;47.042;15.498;2023-02-08T07:04:46;99477.13;;;-6.13;83.68
57442;BME280;43284;47.042;15.498;2023-02-08T07:07:14;99472.19;;;-6.10;83.88
57442;BME280;43284;47.042;15.498;2023-02-08T07:09:40;99471.22;;;-6.12;83.46
57442;BME280;43284;47.042;15.498;2023-02-08T07:12:06;99470.56;;;-6.10;82.77
57442;BME280;43284;47.042;15.498;2023-02-08T07:14:33;99465.00;;;-6.03;82.16
57442;BME280;43284;47.042;15.498;2023-02-08T07:17:02;99486.41;;;-5.99;81.58
57442;BME280;43284;47.042;15.498;2023-02-08T07:19:28;99471.41;;;-5.93;81.27
57442;BME280;43284;47.042;15.498;2023-02-08T07:21:54;99474.84;;;-5.92;81.72
57442;BME280;43284;47.042;15.498;2023-02-08T07:24:23;99473.19;;;-5.92;81.43
57442;BME280;43284;47.042;15.498;2023-02-08T07:26:49;99469.28;;;-5.85;82.11
57442;BME280;43284;47.042;15.498;2023-02-08T07:29:14;99471.28;;;-5.80;82.29
57442;BME280;43284;47.042;15.498;2023-02-08T07:31:40;99486.97;;;-5.72;82.17
57442;BME280;43284;47.042;15.498;2023-02-08T07:34:06;99482.22;;;-5.66;82.00
57442;BME280;43284;47.042;15.498;2023-02-08T07:36:31;99474.63;;;-5.64;80.21
57442;BME280;43284;47.042;15.498;2023-02-08T07:38:57;99470.75;;;-5.57;78.94
57442;BME280;43284;47.042;15.498;2023-02-08T07:41:22;99476.78;;;-5.55;78.60
57442;BME280;43284;47.042;15.498;2023-02-08T07:43:48;99472.50;;;-5.56;79.19
57442;BME280;43284;47.042;15.498;2023-02-08T07:46:18;99474.56;;;-5.49;77.92
57442;BME280;43284;47.042;15.498;2023-02-08T07:48:45;99472.19;;;-5.46;77.85
57442;BME280;43284;47.042;15.498;2023-02-08T07:51:11;99483.88;;;-5.50;79.03
57442;BME280;43284;47.042;15.498;2023-02-08T07:53:38;99487.25;;;-5.51;78.90
57442;BME280;43284;47.042;15.498;2023-02-08T07:56:04;99494.94;;;-5.49;77.44
57442;BME280;43284;47.042;15.498;2023-02-08T07:58:30;99502.59;;;-5.49;76.89
57442;BME280;43284;47.042;15.498;2023-02-08T08:00:57;99507.69;;;-5.49;76.50
57442;BME280;43284;47.042;15.498;2023-02-08T08:03:23;99502.06;;;-5.44;76.57
57442;BME280;43284;47.042;15.498;2023-02-08T08:05:49;99503.06;;;-5.40;75.76
57442;BME280;43284;47.042;15.498;2023-02-08T08:08:16;99494.88;;;-5.18;76.15
57442;BME280;43284;47.042;15.498;2023-02-08T08:10:42;99488.34;;;-5.13;74.07
57442;BME280;43284;47.042;15.498;2023-02-08T08:13:09;99485.28;;;-5.06;73.89
57442;BME280;43284;47.042;15.498;2023-02-08T08:15:34;99483.63;;;-5.05;73.13
57442;BME280;43284;47.042;15.498;2023-02-08T08:18:00;99483.78;;;-5.02;74.07
57442;BME280;43284;47.042;15.498;2023-02-08T08:20:26;99493.13;;;-5.03;74.54
57442;BME280;43284;47.042;15.498;2023-02-08T08:22:52;99492.63;;;-4.95;75.52
57442;BME280;43284;47.042;15.498;2023-02-08T08:25:17;99488.50;;;-4.76;72.59
57442;BME280;43284;47.042;15.498;2023-02-08T08:27:43;99498.63;;;-4.77;73.72
57442;BME280;43284;47.042;15.498;2023-02-08T08:30:12;99495.34;;;-4.74;74.47
57442;BME280;43284;47.042;15.498;2023-02-08T08:32:38;99496.56;;;-4.68;73.96
57442;BME280;43284;47.042;15.498;2023-02-08T08:35:05;99501.16;;;-4.61;73.04
57442;BME280;43284;47.042;15.498;2023-02-08T08:37:32;99514.22;;;-4.54;73.22
57442;BME280;43284;47.042;15.498;2023-02-08T08:39:58;99519.84;;;-4.44;74.01
57442;BME280;43284;47.042;15.498;2023-02-08T08:42:24;99515.25;;;-4.33;73.06
57442;BME280;43284;47.042;15.498;2023-02-08T08:44:51;99519.66;;;-4.12;71.46
57442;BME280;43284;47.042;15.498;2023-02-08T08:47:17;99530.00;;;-4.09;70.92
57442;BME280;43284;47.042;15.498;2023-02-08T08:49:43;99518.41;;;-4.03;70.57
57442;BME280;43284;47.042;15.498;2023-02-08T08:52:10;99519.03;;;-4.07;70.54
57442;BME280;43284;47.042;15.498;2023-02-08T08:54:36;99519.13;;;-4.05;70.08
57442;BME280;43284;47.042;15.498;2023-02-08T08:57:02;99526.06;;;-4.03;71.08
57442;BME280;43284;47.042;15.498;2023-02-08T08:59:28;99524.81;;;-3.93;70.70
57442;BME280;43284;47.042;15.498;2023-02-08T09:01:54;99511.81;;;-3.80;70.56
57442;BME280;43284;47.042;15.498;2023-02-08T09:04:20;99518.00;;;-3.75;71.34
57442;BME280;43284;47.042;15.498;2023-02-08T09:06:48;99512.06;;;-3.56;70.53
57442;BME280;43284;47.042;15.498;2023-02-08T09:09:14;99514.91;;;-3.67;68.93
57442;BME280;43284;47.042;15.498;2023-02-08T09:11:40;99510.75;;;-3.47;69.34
57442;BME280;43284;47.042;15.498;2023-02-08T09:14:06;99512.47;;;-3.46;69.21
57442;BME280;43284;47.042;15.498;2023-02-08T09:16:32;99517.72;;;-3.43;68.11
57442;BME280;43284;47.042;15.498;2023-02-08T09:19:02;99515.16;;;-3.43;68.93
57442;BME280;43284;47.042;15.498;2023-02-08T09:21:28;99515.50;;;-3.36;69.29
57442;BME280;43284;47.042;15.498;2023-02-08T09:23:54;99510.25;;;-3.19;68.36
57442;BME280;43284;47.042;15.498;2023-02-08T09:26:21;99501.88;;;-3.17;68.38
57442;BME280;43284;47.042;15.498;2023-02-08T09:28:46;99507.50;;;-3.04;67.48
57442;BME280;43284;47.042;15.498;2023-02-08T09:31:22;99512.56;;;-3.06;68.79
57442;BME280;43284;47.042;15.498;2023-02-08T09:33:49;99524.94;;;-2.96;66.85
57442;BME280;43284;47.042;15.498;2023-02-08T09:36:15;99531.06;;;-2.92;67.31
57442;BME280;43284;47.042;15.498;2023-02-08T09:38:41;99533.28;;;-3.00;65.48
57442;BME280;43284;47.042;15.498;2023-02-08T09:46:40;99538.81;;;-2.91;63.99
57442;BME280;43284;47.042;15.498;2023-02-08T09:49:14;99541.13;;;-2.76;66.05
57442;BME280;43284;47.042;15.498;2023-02-08T09:51:42;99541.78;;;-2.60;64.80
57442;BME280;43284;47.042;15.498;2023-02-08T09:54:18;99536.63;;;-2.62;65.49
57442;BME280;43284;47.042;15.498;2023-02-08T09:56:46;99542.00;;;-2.56;65.86
57442;BME280;43284;47.042;15.498;2023-02-08T09:59:26;99534.06;;;-2.62;64.00
57442;BME280;43284;47.042;15.498;2023-02-08T10:02:28;99535.50;;;-2.47;63.08
57442;BME280;43284;47.042;15.498;2023-02-08T10:04:58;99538.06;;;-2.47;63.39
57442;BME280;43284;47.042;15.498;2023-02-08T10:07:25;99540.06;;;-2.40;63.67
57442;BME280;43284;47.042;15.498;2023-02-08T10:09:53;99536.09;;;-2.34;62.52
57442;BME280;43284;47.042;15.498;2023-02-08T10:12:37;99532.59;;;-2.36;63.79
57442;BME280;43284;47.042;15.498;2023-02-08T10:15:14;99531.50;;;-2.20;61.99
57442;BME280;43284;47.042;15.498;2023-02-08T10:18:05;99527.81;;;-2.05;63.42
57442;BME280;43284;47.042;15.498;2023-02-08T10:23:25;99523.94;;;-1.96;62.26
57442;BME280;43284;47.042;15.498;2023-02-08T10:36:52;99527.84;;;-1.83;60.17
57442;BME280;43284;47.042;15.498;2023-02-08T10:39:28;99524.75;;;-1.97;60.56
57442;BME280;43284;47.042;15.498;2023-02-08T10:41:55;99525.31;;;-2.04;60.48
57442;BME280;43284;47.042;15.498;2023-02-08T10:44:34;99524.44;;;-2.04;60.36
57442;BME280;43284;47.042;15.498;2023-02-08T10:49:56;99521.78;;;-1.85;61.13
57442;BME280;43284;47.042;15.498;2023-02-08T10:52:22;99516.91;;;-1.79;61.43
57442;BME280;43284;47.042;15.498;2023-02-08T10:54:48;99510.84;;;-1.81;61.23
57442;BME280;43284;47.042;15.498;2023-02-08T10:57:22;99513.41;;;-1.81;61.34
57442;BME280;43284;47.042;15.498;2023-02-08T11:00:19;99503.69;;;-1.88;60.88
57442;BME280;43284;47.042;15.498;2023-02-08T11:02:45;99496.72;;;-1.70;60.91
57442;BME280;43284;47.042;15.498;2023-02-08T11:05:18;99490.81;;;-1.45;59.01
57442;BME280;43284;47.042;15.498;2023-02-08T11:07:44;99493.44;;;-1.43;59.42
57442;BME280;43284;47.042;15.498;2023-02-08T11:10:30;99498.13;;;-1.78;58.76
57442;BME280;43284;47.042;15.498;2023-02-08T11:12:58;99498.44;;;-1.70;59.98
57442;BME280;43284;47.042;15.498;2023-02-08T11:15:50;99493.75;;;-1.80;60.30
57442;BME280;43284;47.042;15.498;2023-02-08T11:18:23;99499.13;;;-1.74;59.22
57442;BME280;43284;47.042;15.498;2023-02-08T11:20:52;99493.03;;;-1.54;60.16
57442;BME280;43284;47.042;15.498;2023-02-08T11:23:22;99490.72;;;-1.48;58.86
57442;BME280;43284;47.042;15.498;2023-02-08T11:25:50;99486.41;;;-1.49;58.82
57442;BME280;43284;47.042;15.498;2023-02-08T11:28:28;99484.94;;;-1.42;59.86
57442;BME280;43284;47.042;15.498;2023-02-08T11:31:00;99487.50;;;-1.64;59.54
57442;BME280;43284;47.042;15.498;2023-02-08T11:33:28;99475.25;;;-1.49;60.11
57442;BME280;43284;47.042;15.498;2023-02-08T11:36:14;99481.88;;;-1.32;59.64
57442;BME280;43284;47.042;15.498;2023-02-08T11:38:41;99478.22;;;-1.38;59.00
57442;BME280;43284;47.042;15.498;2023-02-08T11:41:14;99483.09;;;-1.46;59.87
57442;BME280;43284;47.042;15.498;2023-02-08T11:43:40;99476.97;;;-1.50;59.65
57442;BME280;43284;47.042;15.498;2023-02-08T11:46:06;99480.69;;;-1.41;59.81
57442;BME280;43284;47.042;15.498;2023-02-08T11:48:43;99481.00;;;-1.32;60.11
57442;BME280;43284;47.042;15.498;2023-02-08T11:51:13;99476.19;;;-1.23;60.29
57442;BME280;43284;47.042;15.498;2023-02-08T11:53:47;99477.84;;;-1.25;59.30
57442;BME280;43284;47.042;15.498;2023-02-08T11:56:18;99470.44;;;-1.17;59.95
57442;BME280;43284;47.042;15.498;2023-02-08T12:01:40;99470.03;;;-1.04;60.17
57442;BME280;43284;47.042;15.498;2023-02-08T12:04:11;99462.66;;;-0.95;60.08
57442;BME280;43284;47.042;15.498;2023-02-08T12:09:19;99467.06;;;-0.91;59.45
57442;BME280;43284;47.042;15.498;2023-02-08T12:17:26;99452.97;;;-0.78;59.24
57442;BME280;43284;47.042;15.498;2023-02-08T12:20:12;99455.69;;;-0.73;59.06
57442;BME280;43284;47.042;15.498;2023-02-08T12:23:13;99453.25;;;-0.69;58.74
57442;BME280;43284;47.042;15.498;2023-02-08T12:26:02;99451.56;;;-0.68;58.75
57442;BME280;43284;47.042;15.498;2023-02-08T12:31:43;99447.84;;;-0.51;58.59
57442;BME280;43284;47.042;15.498;2023-02-08T12:37:23;99441.94;;;-0.48;57.96
57442;BME280;43284;47.042;15.498;2023-02-08T12:40:30;99449.47;;;-0.27;55.81
57442;BME280;43284;47.042;15.498;2023-02-08T12:46:15;99438.47;;;-0.50;56.18
57442;BME280;43284;47.042;15.498;2023-02-08T12:51:29;99424.00;;;-0.47;55.86
57442;BME280;43284;47.042;15.498;2023-02-08T12:54:07;99426.28;;;-0.56;55.80
57442;BME280;43284;47.042;15.498;2023-02-08T12:56:38;99424.97;;;-0.43;55.56
57442;BME280;43284;47.042;15.498;2023-02-08T12:59:10;99416.34;;;-0.45;55.78
57442;BME280;43284;47.042;15.498;2023-02-08T13:01:43;99418.78;;;-0.50;55.71
57442;BME280;43284;47.042;15.498;2023-02-08T13:04:31;99413.34;;;-0.59;55.56
57442;BME280;43284;47.042;15.498;2023-02-08T13:07:12;99415.22;;;-0.53;56.57
57442;BME280;43284;47.042;15.498;2023-02-08T13:09:55;99412.78;;;-0.50;56.62
57442;BME280;43284;47.042;15.498;2023-02-08T13:12:31;99412.81;;;-0.49;56.78
57442;BME280;43284;47.042;15.498;2023-02-08T13:15:34;99407.28;;;-0.34;56.88
57442;BME280;43284;47.042;15.498;2023-02-08T13:18:08;99400.50;;;-0.32;56.50
57442;BME280;43284;47.042;15.498;2023-02-08T13:23:27;99390.78;;;0.15;54.91
57442;BME280;43284;47.042;15.498;2023-02-08T13:25:57;99387.19;;;0.40;53.82
57442;BME280;43284;47.042;15.498;2023-02-08T13:28:25;99387.84;;;0.65;52.45
57442;BME280;43284;47.042;15.498;2023-02-08T13:31:01;99394.16;;;0.76;50.63
57442;BME280;43284;47.042;15.498;2023-02-08T13:33:38;99392.50;;;0.47;51.03
57442;BME280;43284;47.042;15.498;2023-02-08T13:36:19;99390.75;;;0.46;51.33
57442;BME280;43284;47.042;15.498;2023-02-08T13:38:47;99397.31;;;0.66;51.20
57442;BME280;43284;47.042;15.498;2023-02-08T13:41:16;99386.69;;;0.86;50.40
57442;BME280;43284;47.042;15.498;2023-02-08T13:46:15;99390.75;;;0.77;50.73
57442;BME280;43284;47.042;15.498;2023-02-08T13:48:44;99390.16;;;1.21;50.28
57442;BME280;43284;47.042;15.498;2023-02-08T13:56:45;99396.00;;;1.50;51.50
57442;BME280;43284;47.042;15.498;2023-02-08T13:59:33;99398.13;;;1.67;50.50
57442;BME280;43284;47.042;15.498;2023-02-08T14:04:41;99393.53;;;1.55;50.36
57442;BME280;43284;47.042;15.498;2023-02-08T14:09:39;99391.75;;;1.90;49.44
57442;BME280;43284;47.042;15.498;2023-02-08T14:12:29;99387.91;;;1.73;50.39
57442;BME280;43284;47.042;15.498;2023-02-08T14:17:47;99382.50;;;1.60;50.30
57442;BME280;43284;47.042;15.498;2023-02-08T14:20:20;99388.16;;;1.46;50.49
57442;BME280;43284;47.042;15.498;2023-02-08T14:22:51;99383.06;;;1.49;51.28
57442;BME280;43284;47.042;15.498;2023-02-08T14:25:27;99384.53;;;1.74;51.44
57442;BME280;43284;47.042;15.498;2023-02-08T14:27:57;99385.63;;;1.85;50.05